Pittsburgh, Pennsylvania
Traffic Map
Current Weather Conditions
Pittsburgh, Pennsylvania
Clear
Clear
83°
Feels Like: 83°
Wind Chill: 83° Ceiling: Unl
Heat Index: 83° Visibility: 10mi
Dew Point: 60° Wind: 3mph
Humidity: 46% Direction: ° ()
Pressure: 30.12in Gusts: 0mph
Raw Report DataKAGC 311653Z VRB03KT 10SM CLR 28/16 A3012 RMK AO2 SLP193 T02830156
Traffic Incident Summary
Active as of:
Severity:
Category:
InformationThere was an issue retrieving the traffic information for this location. Please try a different location or try again shortly.
Advertisements
Track Severe Weather on mobile